Time;durP1;ratioP1;P1;durP2;ratioP2;P2;SDS_P1;SDS_P2;PMS_P1;PMS_P2;Temp;Humidity;BMP_temperature;BMP_pressure;BME280_temperature;BME280_humidity;BME280_pressure;Samples;Min_cycle;Max_cycle;Signal;HPM_P1;HPM_P2
2023/12/22 00:01:19;;;;;;;;;;;;;;;6.03;59.70;96267.94;5007644;28;20307;-63
2023/12/22 00:04:08;;;;;;;;;;;;;;;5.99;60.09;96265.09;4999577;28;19937;-63
2023/12/22 00:06:57;;;;;;;;;;;;;;;6.01;60.05;96289.81;5002047;28;19933;-64
2023/12/22 00:09:45;;;;;;;;;;;;;;;6.03;60.36;96287.63;5006529;28;19929;-63
2023/12/22 00:12:33;;;;;;;;;;;;;;;6.11;61.85;96287.91;5002310;28;19971;-63
2023/12/22 00:15:21;;;;;;;;;;;;;;;6.09;60.34;96296.31;5004489;28;19930;-63
2023/12/22 00:18:09;;;;;;;;;;;;;;;6.02;61.35;96299.50;5006138;28;20319;-63
2023/12/22 00:20:57;;;;;;;;;;;;;;;6.06;61.55;96302.34;5009742;28;19929;-63
2023/12/22 00:23:46;;;;;;;;;;;;;;;6.08;61.79;96304.75;5005064;28;19941;-63
2023/12/22 00:26:34;;;;;;;;;;;;;;;6.04;62.16;96299.19;5010933;28;19925;-63
2023/12/22 00:29:22;;;;;;;;;;;;;;;6.00;62.32;96298.25;5008332;28;20622;-62
2023/12/22 00:32:11;;;;;;;;;;;;;;;5.98;62.76;96284.31;5010106;28;19925;-62
2023/12/22 00:34:59;;;;;;;;;;;;;;;6.00;62.79;96284.75;5006737;28;19926;-63
2023/12/22 00:37:47;;;;;;;;;;;;;;;6.03;62.69;96297.59;5008689;28;20042;-62
2023/12/22 00:40:36;;;;;;;;;;;;;;;6.09;62.82;96295.53;5011283;28;19933;-62
2023/12/22 00:43:24;;;;;;;;;;;;;;;6.06;62.57;96302.34;5009475;28;19926;-61
2023/12/22 00:46:13;;;;;;;;;;;;;;;6.04;63.32;96299.97;5008774;28;19929;-62
2023/12/22 00:49:01;;;;;;;;;;;;;;;6.08;63.15;96327.09;5010912;28;20015;-62
2023/12/22 00:51:49;;;;;;;;;;;;;;;6.10;63.58;96334.84;5008850;28;19936;-62
2023/12/22 00:54:38;;;;;;;;;;;;;;;6.12;62.95;96332.63;5008590;28;19929;-62
2023/12/22 00:57:30;;;;;;;;;;;;;;;6.07;63.85;96316.59;5007350;28;20403;-61
2023/12/22 01:00:18;;;;;;;;;;;;;;;6.02;63.99;96329.16;5009341;28;19975;-61
2023/12/22 01:03:11;;;;;;;;;;;;;;;6.04;63.66;96323.44;5007122;28;19941;-62
2023/12/22 01:06:00;;;;;;;;;;;;;;;6.07;63.85;96319.31;5010420;28;19933;-61
2023/12/22 01:08:49;;;;;;;;;;;;;;;5.98;63.77;96301.25;5009597;28;20020;-63
2023/12/22 01:11:38;;;;;;;;;;;;;;;5.99;64.24;96318.22;5001047;28;19983;-62
2023/12/22 01:14:27;;;;;;;;;;;;;;;5.99;64.36;96308.22;5006801;28;20004;-62
2023/12/22 01:17:15;;;;;;;;;;;;;;;6.06;64.24;96323.13;5008701;28;19925;-62
2023/12/22 01:20:03;;;;;;;;;;;;;;;5.92;64.29;96317.94;5010976;28;20062;-62
2023/12/22 01:22:52;;;;;;;;;;;;;;;5.87;64.70;96307.28;5008638;28;20052;-63
2023/12/22 01:25:40;;;;;;;;;;;;;;;5.84;64.59;96324.88;5007963;28;20012;-62
2023/12/22 01:28:28;;;;;;;;;;;;;;;5.93;64.92;96324.91;5003999;28;19926;-62
2023/12/22 01:31:18;;;;;;;;;;;;;;;5.85;64.80;96326.44;5006790;28;20295;-62
2023/12/22 01:34:07;;;;;;;;;;;;;;;5.81;65.38;96335.50;5008995;28;19926;-62
2023/12/22 01:36:55;;;;;;;;;;;;;;;5.89;65.32;96350.88;5008942;28;19964;-61
2023/12/22 01:39:43;;;;;;;;;;;;;;;5.92;65.08;96351.06;5005304;28;19983;-63
2023/12/22 01:42:31;;;;;;;;;;;;;;;5.93;65.35;96347.25;5002533;28;20050;-63
2023/12/22 01:45:19;;;;;;;;;;;;;;;5.87;65.89;96353.09;5008211;28;19929;-61
2023/12/22 01:48:09;;;;;;;;;;;;;;;5.90;65.65;96349.75;5006542;28;19980;-62
2023/12/22 01:50:58;;;;;;;;;;;;;;;5.94;65.79;96353.44;5003374;28;19999;-61
2023/12/22 01:53:46;;;;;;;;;;;;;;;5.91;65.83;96343.25;5007205;28;19972;-62
2023/12/22 01:56:34;;;;;;;;;;;;;;;5.95;66.36;96322.66;5007866;28;20723;-62
2023/12/22 01:59:22;;;;;;;;;;;;;;;5.91;66.11;96344.09;5008087;28;19931;-62
2023/12/22 02:02:10;;;;;;;;;;;;;;;5.90;66.24;96341.66;5000133;28;19968;-61
2023/12/22 02:05:00;;;;;;;;;;;;;;;5.90;65.96;96331.66;5012866;28;19986;-63
2023/12/22 02:07:48;;;;;;;;;;;;;;;5.82;66.61;96323.63;5002994;28;19932;-63
2023/12/22 02:10:37;;;;;;;;;;;;;;;5.74;66.97;96319.81;5007980;28;20384;-62
2023/12/22 02:13:25;;;;;;;;;;;;;;;5.76;67.18;96325.69;5005946;28;20442;-62
2023/12/22 02:16:16;;;;;;;;;;;;;;;5.70;67.11;96343.91;5009236;28;19938;-61
2023/12/22 02:19:05;;;;;;;;;;;;;;;5.75;67.04;96348.34;5007495;28;19940;-62
2023/12/22 02:22:01;;;;;;;;;;;;;;;5.67;67.19;96332.97;5006124;28;19930;-62
2023/12/22 02:24:54;;;;;;;;;;;;;;;5.61;67.30;96313.47;5005248;28;20307;-62
2023/12/22 02:27:43;;;;;;;;;;;;;;;5.63;67.42;96308.56;5006665;28;19926;-62
2023/12/22 02:30:32;;;;;;;;;;;;;;;5.67;67.45;96325.69;5006002;28;20311;-62
2023/12/22 02:33:20;;;;;;;;;;;;;;;5.66;67.08;96312.53;5006920;28;19975;-61
2023/12/22 02:36:08;;;;;;;;;;;;;;;5.63;67.25;96329.31;5007325;28;19932;-62
2023/12/22 02:38:56;;;;;;;;;;;;;;;5.62;66.54;96333.91;5006137;28;19945;-62
2023/12/22 02:41:49;;;;;;;;;;;;;;;5.64;66.73;96336.28;4999770;28;20004;-62
2023/12/22 02:44:37;;;;;;;;;;;;;;;5.59;66.33;96325.66;5008465;28;20406;-63
2023/12/22 02:47:27;;;;;;;;;;;;;;;5.58;66.69;96335.66;5004812;28;20481;-62
2023/12/22 02:50:15;;;;;;;;;;;;;;;5.57;66.09;96341.38;5005623;28;19962;-62
2023/12/22 02:53:04;;;;;;;;;;;;;;;5.53;66.02;96336.59;5006898;28;19925;-62
2023/12/22 02:55:52;;;;;;;;;;;;;;;5.45;66.48;96352.78;5002824;28;19934;-62
2023/12/22 02:58:41;;;;;;;;;;;;;;;5.38;67.26;96341.66;4998303;28;19930;-62
2023/12/22 03:04:42;;;;;;;;;;;;;;;5.43;67.37;96350.41;4999311;28;19932;-63
2023/12/22 03:07:30;;;;;;;;;;;;;;;5.45;67.51;96363.56;5005259;28;19933;-62
2023/12/22 03:10:18;;;;;;;;;;;;;;;5.40;68.18;96374.47;5005036;28;19937;-61
2023/12/22 03:13:06;;;;;;;;;;;;;;;5.41;68.28;96368.78;4999225;28;20394;-62
2023/12/22 03:15:56;;;;;;;;;;;;;;;5.46;68.16;96386.69;5002804;28;20422;-62
2023/12/22 03:18:44;;;;;;;;;;;;;;;5.47;67.94;96374.78;5008528;28;20303;-62
2023/12/22 03:21:32;;;;;;;;;;;;;;;5.46;67.78;96371.31;5007515;28;19933;-62
2023/12/22 03:24:22;;;;;;;;;;;;;;;5.48;68.02;96382.56;5002136;28;20003;-63
2023/12/22 03:27:16;;;;;;;;;;;;;;;5.50;67.53;96393.81;5006211;28;20059;-62
2023/12/22 03:30:04;;;;;;;;;;;;;;;5.59;67.47;96385.72;5013783;28;19929;-63
2023/12/22 03:32:54;;;;;;;;;;;;;;;5.53;67.44;96374.31;5002899;28;19929;-62
2023/12/22 03:35:42;;;;;;;;;;;;;;;5.59;67.28;96377.66;5007643;28;20489;-62
2023/12/22 03:38:30;;;;;;;;;;;;;;;5.57;67.45;96401.44;5003211;28;19933;-62
2023/12/22 03:41:18;;;;;;;;;;;;;;;5.60;67.50;96386.56;5005956;28;20005;-61
2023/12/22 03:44:06;;;;;;;;;;;;;;;5.51;67.10;96384.63;5007512;28;20004;-62
2023/12/22 03:46:54;;;;;;;;;;;;;;;5.48;66.74;96384.44;5002102;28;20410;-62
2023/12/22 03:49:44;;;;;;;;;;;;;;;5.44;66.12;96370.06;4995045;28;20035;-63
2023/12/22 03:52:32;;;;;;;;;;;;;;;5.44;66.41;96364.66;5005066;28;19944;-62
2023/12/22 03:55:20;;;;;;;;;;;;;;;5.49;66.38;96361.81;5008838;28;19930;-62
2023/12/22 03:58:08;;;;;;;;;;;;;;;5.48;66.19;96362.91;5006437;28;19941;-61
2023/12/22 04:00:56;;;;;;;;;;;;;;;5.44;65.88;96370.06;5003207;28;19925;-61
2023/12/22 04:03:44;;;;;;;;;;;;;;;5.36;65.82;96354.66;5006586;28;19926;-62
2023/12/22 04:06:38;;;;;;;;;;;;;;;5.34;66.03;96362.28;5002221;28;20306;-63
2023/12/22 04:09:29;;;;;;;;;;;;;;;5.26;65.46;96351.16;5004701;28;20310;-62
2023/12/22 04:12:18;;;;;;;;;;;;;;;5.24;65.20;96333.75;5006578;28;20397;-61
2023/12/22 04:15:07;;;;;;;;;;;;;;;5.27;65.04;96346.56;5001749;28;19926;-61
2023/12/22 04:17:55;;;;;;;;;;;;;;;5.28;64.63;96350.88;5004906;28;19926;-63
2023/12/22 04:20:43;;;;;;;;;;;;;;;5.36;65.13;96360.84;5006771;28;20379;-62
2023/12/22 04:23:33;;;;;;;;;;;;;;;5.39;63.97;96372.91;5004065;28;20067;-63
2023/12/22 04:26:20;;;;;;;;;;;;;;;5.31;63.71;96361.00;4998612;28;19933;-63
2023/12/22 04:29:08;;;;;;;;;;;;;;;5.29;64.34;96351.66;5007247;28;19929;-63
2023/12/22 04:31:56;;;;;;;;;;;;;;;5.32;64.17;96359.88;5006420;28;19936;-63
2023/12/22 04:34:44;;;;;;;;;;;;;;;5.29;63.98;96354.34;5006022;28;19980;-62
2023/12/22 04:37:32;;;;;;;;;;;;;;;5.25;64.53;96375.72;5008409;28;19933;-63
2023/12/22 04:40:22;;;;;;;;;;;;;;;5.20;65.16;96367.78;5008455;28;19940;-62
2023/12/22 04:43:10;;;;;;;;;;;;;;;5.24;64.88;96387.59;5003780;28;19936;-64
2023/12/22 04:45:58;;;;;;;;;;;;;;;5.13;65.33;96373.63;5001092;28;19976;-64
2023/12/22 04:48:48;;;;;;;;;;;;;;;5.07;65.68;96395.66;5004485;28;19968;-62
2023/12/22 04:51:37;;;;;;;;;;;;;;;5.07;66.07;96401.81;5001799;28;19932;-63
2023/12/22 04:54:26;;;;;;;;;;;;;;;5.04;66.21;96390.88;4998747;28;19937;-62
2023/12/22 04:57:16;;;;;;;;;;;;;;;4.99;66.25;96405.25;5006138;28;19937;-63
2023/12/22 05:00:06;;;;;;;;;;;;;;;4.99;66.58;96405.25;5006955;28;20019;-62
2023/12/22 05:02:54;;;;;;;;;;;;;;;4.90;66.92;96409.81;5001970;28;20456;-62
2023/12/22 05:05:42;;;;;;;;;;;;;;;4.91;67.19;96400.66;5014264;28;19926;-63
2023/12/22 05:08:30;;;;;;;;;;;;;;;4.95;66.74;96407.81;5013178;28;19980;-62
2023/12/22 05:11:18;;;;;;;;;;;;;;;4.99;66.36;96405.25;5009673;28;19959;-62
2023/12/22 05:14:08;;;;;;;;;;;;;;;5.04;66.01;96407.03;5011803;28;20008;-63
2023/12/22 05:16:56;;;;;;;;;;;;;;;5.11;65.49;96402.75;5010026;28;20311;-62
2023/12/22 05:19:46;;;;;;;;;;;;;;;5.17;65.72;96401.53;5006441;28;19936;-61
2023/12/22 05:22:33;;;;;;;;;;;;;;;5.15;65.07;96425.25;5009251;28;19933;-61
2023/12/22 05:25:23;;;;;;;;;;;;;;;5.18;64.75;96431.94;5006323;28;19956;-61
2023/12/22 05:28:12;;;;;;;;;;;;;;;5.39;64.82;96432.94;5008253;28;20395;-64
2023/12/22 05:31:01;;;;;;;;;;;;;;;5.47;64.16;96434.84;5008323;28;19926;-63
2023/12/22 05:33:49;;;;;;;;;;;;;;;5.39;64.41;96437.53;5008120;28;19934;-62
2023/12/22 05:36:38;;;;;;;;;;;;;;;5.35;65.13;96447.34;5008228;28;19933;-62
2023/12/22 05:39:26;;;;;;;;;;;;;;;5.41;65.62;96429.94;5008639;28;20287;-62
2023/12/22 05:42:14;;;;;;;;;;;;;;;5.60;65.47;96435.03;5009329;28;19984;-62
2023/12/22 05:45:02;;;;;;;;;;;;;;;5.71;64.75;96430.94;4999599;28;20307;-62
2023/12/22 05:47:52;;;;;;;;;;;;;;;5.64;65.36;96447.53;5007568;28;19925;-61
2023/12/22 05:50:41;;;;;;;;;;;;;;;5.67;65.46;96455.00;4999931;28;19937;-63
2023/12/22 05:53:29;;;;;;;;;;;;;;;5.64;65.42;96436.75;5009655;28;19925;-62
2023/12/22 05:56:20;;;;;;;;;;;;;;;5.62;64.76;96457.06;5004953;28;20298;-62
2023/12/22 05:59:08;;;;;;;;;;;;;;;5.48;65.52;96460.66;5011698;28;20075;-62
2023/12/22 06:01:58;;;;;;;;;;;;;;;5.31;65.55;96449.06;5000801;28;19926;-62
2023/12/22 06:04:47;;;;;;;;;;;;;;;5.27;66.11;96446.19;5004203;28;19987;-62
2023/12/22 06:07:36;;;;;;;;;;;;;;;5.26;66.08;96431.94;5005021;28;20072;-62
2023/12/22 06:10:24;;;;;;;;;;;;;;;5.26;66.05;96437.31;5007202;28;19926;-62
2023/12/22 06:13:14;;;;;;;;;;;;;;;5.20;65.52;96438.59;5009108;28;19929;-63
2023/12/22 06:16:03;;;;;;;;;;;;;;;5.09;66.14;96437.28;5005093;28;20280;-62
2023/12/22 06:18:50;;;;;;;;;;;;;;;5.04;66.02;96448.19;5006322;28;19948;-62
2023/12/22 06:21:40;;;;;;;;;;;;;;;5.11;66.37;96437.75;5007036;28;20574;-63
2023/12/22 06:24:29;;;;;;;;;;;;;;;5.24;65.54;96446.84;5008113;28;20543;-62
2023/12/22 06:27:18;;;;;;;;;;;;;;;5.43;65.89;96455.44;5005396;28;20387;-61
2023/12/22 06:30:06;;;;;;;;;;;;;;;5.33;65.74;96458.44;5006811;28;19932;-62
2023/12/22 06:32:55;;;;;;;;;;;;;;;5.44;65.85;96454.34;5012633;28;20385;-62
2023/12/22 06:35:44;;;;;;;;;;;;;;;5.56;65.62;96461.81;5007765;28;19929;-62
2023/12/22 06:38:34;;;;;;;;;;;;;;;5.50;66.36;96452.28;5009066;28;19929;-61
2023/12/22 06:41:22;;;;;;;;;;;;;;;5.39;66.80;96457.19;5006741;28;20063;-62
2023/12/22 06:44:14;;;;;;;;;;;;;;;5.44;67.15;96451.66;5003847;28;20050;-62
2023/12/22 06:47:02;;;;;;;;;;;;;;;5.45;67.00;96457.81;5008199;28;19941;-61
2023/12/22 06:49:50;;;;;;;;;;;;;;;5.44;66.98;96450.84;5003974;28;19930;-61
2023/12/22 06:52:39;;;;;;;;;;;;;;;5.49;66.93;96456.88;5009160;28;19944;-61
2023/12/22 06:55:28;;;;;;;;;;;;;;;5.43;67.67;96463.53;5006808;28;20644;-61
2023/12/22 06:58:17;;;;;;;;;;;;;;;5.35;67.73;96466.19;5003084;28;19929;-61
2023/12/22 07:01:05;;;;;;;;;;;;;;;5.27;67.38;96462.34;5007851;28;19930;-62
2023/12/22 07:03:53;;;;;;;;;;;;;;;5.20;67.76;96467.41;5000612;28;20024;-62
2023/12/22 07:06:41;;;;;;;;;;;;;;;5.17;68.09;96471.53;5005323;28;19930;-61
2023/12/22 07:09:32;;;;;;;;;;;;;;;5.28;67.78;96468.56;5009753;28;19973;-61
2023/12/22 07:12:21;;;;;;;;;;;;;;;5.14;68.01;96464.06;5006297;28;19952;-62
2023/12/22 07:15:10;;;;;;;;;;;;;;;5.34;68.33;96472.69;5007649;28;20075;-62
2023/12/22 07:18:01;;;;;;;;;;;;;;;5.29;67.57;96476.31;5009322;28;19929;-62
2023/12/22 07:20:49;;;;;;;;;;;;;;;5.38;68.15;96466.38;5007484;28;19929;-61
2023/12/22 07:23:37;;;;;;;;;;;;;;;5.40;68.08;96471.44;5005203;28;20075;-61
2023/12/22 07:26:26;;;;;;;;;;;;;;;5.45;68.05;96473.97;5008948;28;20615;-61
2023/12/22 07:29:16;;;;;;;;;;;;;;;5.42;68.21;96472.69;5003756;28;19933;-62
2023/12/22 07:32:04;;;;;;;;;;;;;;;5.38;69.25;96471.75;5006736;28;19979;-61
2023/12/22 07:34:52;;;;;;;;;;;;;;;5.51;69.28;96492.38;5007263;28;19925;-62
2023/12/22 07:37:40;;;;;;;;;;;;;;;5.51;69.39;96496.97;5004302;28;19965;-62
2023/12/22 07:40:30;;;;;;;;;;;;;;;5.60;69.64;96519.34;5000840;28;19937;-61
2023/12/22 07:43:18;;;;;;;;;;;;;;;5.55;69.84;96508.72;5005976;28;19929;-60
2023/12/22 07:46:09;;;;;;;;;;;;;;;5.48;70.83;96513.75;5000747;28;20371;-62
2023/12/22 07:48:58;;;;;;;;;;;;;;;5.67;70.64;96508.91;5002484;28;19925;-63
2023/12/22 07:51:51;;;;;;;;;;;;;;;5.68;70.73;96513.19;5006618;28;19925;-61
2023/12/22 07:54:39;;;;;;;;;;;;;;;5.66;70.89;96520.00;5007829;28;20490;-61
2023/12/22 07:57:28;;;;;;;;;;;;;;;5.76;71.38;96520.50;5004959;28;19934;-62
2023/12/22 08:00:16;;;;;;;;;;;;;;;5.77;72.04;96532.06;4999491;28;19980;-61
2023/12/22 08:03:05;;;;;;;;;;;;;;;5.72;72.15;96543.00;4997346;28;20298;-61
2023/12/22 08:05:54;;;;;;;;;;;;;;;5.74;71.87;96530.78;5006690;28;19926;-61
2023/12/22 08:08:42;;;;;;;;;;;;;;;5.88;71.68;96537.97;5009984;28;20370;-61
2023/12/22 08:11:30;;;;;;;;;;;;;;;5.97;71.70;96536.91;4996755;28;19925;-61
2023/12/22 08:14:18;;;;;;;;;;;;;;;6.00;71.43;96533.56;5001622;28;19929;-61
2023/12/22 08:17:06;;;;;;;;;;;;;;;6.13;70.96;96545.31;5000421;28;19936;-61
2023/12/22 08:19:56;;;;;;;;;;;;;;;6.14;70.94;96546.91;5002779;28;19929;-61
2023/12/22 08:22:52;;;;;;;;;;;;;;;6.12;71.00;96543.72;4999835;28;20006;-62
2023/12/22 08:25:41;;;;;;;;;;;;;;;6.01;71.23;96550.53;4999645;28;19929;-62
2023/12/22 08:28:31;;;;;;;;;;;;;;;6.11;71.37;96547.53;5001230;28;20269;-61
2023/12/22 08:31:19;;;;;;;;;;;;;;;6.17;70.64;96551.66;5000503;28;19932;-61
2023/12/22 08:34:07;;;;;;;;;;;;;;;6.33;70.61;96560.06;5002271;28;20379;-61
2023/12/22 08:36:57;;;;;;;;;;;;;;;6.25;70.79;96569.75;5003208;28;19934;-61
2023/12/22 08:39:45;;;;;;;;;;;;;;;6.30;70.54;96577.69;5000605;28;19936;-62
2023/12/22 08:42:36;;;;;;;;;;;;;;;6.29;71.08;96584.22;5005173;28;19933;-61
2023/12/22 08:45:25;;;;;;;;;;;;;;;6.25;70.74;96585.94;5005602;28;19940;-62
2023/12/22 08:48:13;;;;;;;;;;;;;;;6.11;70.81;96600.66;5007997;28;19948;-62
2023/12/22 08:51:01;;;;;;;;;;;;;;;6.14;71.12;96567.69;5006029;28;19925;-63
2023/12/22 08:53:52;;;;;;;;;;;;;;;6.15;70.87;96597.03;5003492;28;19976;-62
2023/12/22 08:56:40;;;;;;;;;;;;;;;6.17;71.16;96592.09;5003563;28;20347;-62
2023/12/22 08:59:28;;;;;;;;;;;;;;;6.17;71.27;96594.00;5006145;28;19933;-62
2023/12/22 09:02:16;;;;;;;;;;;;;;;6.19;71.02;96602.59;5003764;28;19933;-61
2023/12/22 09:05:07;;;;;;;;;;;;;;;6.12;71.36;96586.84;5004512;28;19960;-62
2023/12/22 09:07:55;;;;;;;;;;;;;;;6.09;71.24;96609.06;5002871;28;19973;-62
2023/12/22 09:10:45;;;;;;;;;;;;;;;6.10;71.51;96594.47;5006547;28;20387;-62
2023/12/22 09:13:33;;;;;;;;;;;;;;;6.23;71.05;96598.97;5004284;28;19926;-62
2023/12/22 09:16:21;;;;;;;;;;;;;;;6.21;71.73;96582.28;5002847;28;20407;-62
2023/12/22 09:19:09;;;;;;;;;;;;;;;6.35;71.04;96579.44;5003811;28;19925;-63
2023/12/22 09:21:57;;;;;;;;;;;;;;;6.51;70.80;96582.47;5003761;28;20417;-62
2023/12/22 09:24:45;;;;;;;;;;;;;;;6.36;70.28;96591.03;4997553;28;19991;-63
2023/12/22 09:27:35;;;;;;;;;;;;;;;6.44;69.85;96580.22;5006344;28;21988;-62
2023/12/22 09:30:23;;;;;;;;;;;;;;;6.50;69.67;96591.69;5004640;28;19925;-63
2023/12/22 09:33:15;;;;;;;;;;;;;;;6.56;69.51;96579.63;5005942;28;20352;-62
2023/12/22 09:36:04;;;;;;;;;;;;;;;6.66;68.93;96578.50;5007211;28;19937;-61
2023/12/22 09:38:52;;;;;;;;;;;;;;;6.66;68.30;96576.63;5004543;28;19991;-61
2023/12/22 09:41:40;;;;;;;;;;;;;;;6.52;68.08;96592.16;5006567;28;19926;-62
2023/12/22 09:44:32;;;;;;;;;;;;;;;6.67;68.44;96617.88;5005342;28;20027;-60
2023/12/22 09:47:20;;;;;;;;;;;;;;;6.61;69.07;96611.84;5003789;28;20332;-61
2023/12/22 09:50:09;;;;;;;;;;;;;;;6.78;70.03;96609.16;5003187;28;20025;-63
2023/12/22 09:52:57;;;;;;;;;;;;;;;6.57;69.93;96610.88;5001588;28;19933;-61
2023/12/22 09:55:50;;;;;;;;;;;;;;;6.21;71.41;96600.38;5002985;28;19929;-61
2023/12/22 09:58:38;;;;;;;;;;;;;;;6.40;71.63;96597.41;5007585;28;19935;-62
2023/12/22 10:01:28;;;;;;;;;;;;;;;6.47;71.26;96603.09;5001501;28;20384;-60
2023/12/22 10:04:16;;;;;;;;;;;;;;;6.15;72.49;96607.03;5003742;28;20044;-62
2023/12/22 10:07:05;;;;;;;;;;;;;;;6.17;73.33;96619.06;5003742;28;19926;-61
2023/12/22 10:09:53;;;;;;;;;;;;;;;6.20;72.99;96618.47;5000771;28;19937;-61
2023/12/22 10:12:42;;;;;;;;;;;;;;;6.33;72.93;96588.97;5000102;28;19960;-61
2023/12/22 10:15:33;;;;;;;;;;;;;;;6.39;73.08;96591.22;5005719;28;19926;-61
2023/12/22 10:18:22;;;;;;;;;;;;;;;6.34;73.19;96583.28;5000925;28;19933;-62
2023/12/22 10:21:11;;;;;;;;;;;;;;;6.35;73.09;96586.75;5002448;28;19929;-62
2023/12/22 10:24:00;;;;;;;;;;;;;;;6.43;72.90;96580.56;5008805;28;20395;-61
2023/12/22 10:26:48;;;;;;;;;;;;;;;6.34;72.09;96585.16;5007731;28;20417;-62
2023/12/22 10:29:36;;;;;;;;;;;;;;;6.18;70.75;96600.97;5000820;28;19932;-61
2023/12/22 10:32:24;;;;;;;;;;;;;;;6.01;72.13;96591.75;5005335;28;20060;-62
2023/12/22 10:35:13;;;;;;;;;;;;;;;5.87;72.12;96574.09;5008283;28;20673;-61
2023/12/22 10:38:05;;;;;;;;;;;;;;;5.63;73.34;96586.06;5012516;28;19925;-62
2023/12/22 10:40:53;;;;;;;;;;;;;;;5.50;74.21;96598.53;5008698;28;20360;-61
2023/12/22 10:43:42;;;;;;;;;;;;;;;5.54;74.20;96606.81;5011514;28;20079;-61
2023/12/22 10:46:30;;;;;;;;;;;;;;;5.53;74.09;96567.47;5006282;28;19932;-61
2023/12/22 10:49:18;;;;;;;;;;;;;;;5.57;74.10;96563.06;5007804;28;20005;-61
2023/12/22 10:52:08;;;;;;;;;;;;;;;5.51;74.14;96559.72;5009498;28;19984;-61
2023/12/22 10:54:56;;;;;;;;;;;;;;;5.57;73.99;96538.81;5003839;28;19925;-61
2023/12/22 10:57:45;;;;;;;;;;;;;;;5.66;73.97;96530.78;5007045;28;20616;-61
2023/12/22 11:00:33;;;;;;;;;;;;;;;5.82;74.35;96533.81;5008773;28;19925;-61
2023/12/22 11:03:22;;;;;;;;;;;;;;;5.92;73.79;96538.94;5005093;28;20009;-62
2023/12/22 11:06:11;;;;;;;;;;;;;;;6.10;74.06;96537.06;5011679;28;20064;-62
2023/12/22 11:09:01;;;;;;;;;;;;;;;6.19;73.86;96544.06;5004008;28;19933;-62
2023/12/22 11:11:49;;;;;;;;;;;;;;;6.30;73.79;96529.16;5000854;28;20762;-62
2023/12/22 11:14:37;;;;;;;;;;;;;;;6.53;73.85;96526.28;5002229;28;19988;-62
2023/12/22 11:17:25;;;;;;;;;;;;;;;6.46;73.41;96525.97;5005521;28;19951;-62
2023/12/22 11:20:14;;;;;;;;;;;;;;;6.49;73.58;96523.41;5005062;28;20016;-62
2023/12/22 11:23:02;;;;;;;;;;;;;;;6.49;74.09;96523.41;5004772;28;19925;-61
2023/12/22 11:25:53;;;;;;;;;;;;;;;6.75;73.69;96523.41;5001864;28;19936;-61
2023/12/22 11:28:43;;;;;;;;;;;;;;;6.81;72.19;96527.50;5015140;28;19930;-61
2023/12/22 11:31:32;;;;;;;;;;;;;;;6.83;72.42;96527.22;5006182;28;19952;-61
2023/12/22 11:34:20;;;;;;;;;;;;;;;6.71;72.15;96516.25;5004445;28;19925;-62
2023/12/22 11:37:08;;;;;;;;;;;;;;;6.71;72.87;96500.06;5001450;28;19943;-61
2023/12/22 11:39:56;;;;;;;;;;;;;;;6.74;73.60;96494.81;5003655;28;20215;-62
2023/12/22 11:42:46;;;;;;;;;;;;;;;6.80;72.99;96490.84;4998358;28;19929;-61
2023/12/22 11:45:36;;;;;;;;;;;;;;;6.74;72.84;96480.53;5005738;28;19956;-62
2023/12/22 11:48:23;;;;;;;;;;;;;;;6.82;72.63;96477.84;5006355;28;19929;-61
2023/12/22 11:51:13;;;;;;;;;;;;;;;6.99;72.92;96479.69;4999130;28;19933;-61
2023/12/22 11:54:03;;;;;;;;;;;;;;;6.83;72.60;96465.91;5002567;28;19930;-61
2023/12/22 11:56:51;;;;;;;;;;;;;;;6.86;72.92;96466.38;5003681;28;19925;-62
2023/12/22 11:59:42;;;;;;;;;;;;;;;6.92;73.22;96446.19;4999160;28;19936;-61
2023/12/22 12:02:31;;;;;;;;;;;;;;;7.03;73.10;96445.53;5003214;28;19936;-61
2023/12/22 12:05:19;;;;;;;;;;;;;;;6.97;72.95;96454.91;4998695;28;19929;-61
2023/12/22 12:08:07;;;;;;;;;;;;;;;7.01;73.41;96452.34;5001827;28;19929;-62
2023/12/22 12:10:55;;;;;;;;;;;;;;;7.07;73.20;96451.06;5007463;28;20383;-62
2023/12/22 12:13:45;;;;;;;;;;;;;;;7.01;73.45;96436.94;5006417;28;19932;-61
2023/12/22 12:16:35;;;;;;;;;;;;;;;7.14;72.94;96442.44;5009939;28;19933;-61
2023/12/22 12:19:23;;;;;;;;;;;;;;;7.21;73.19;96404.94;5013021;28;19933;-61
2023/12/22 12:22:12;;;;;;;;;;;;;;;7.22;72.99;96407.28;5012099;28;20022;-61
2023/12/22 12:25:01;;;;;;;;;;;;;;;7.29;72.89;96391.34;5012771;28;19926;-61
2023/12/22 12:27:49;;;;;;;;;;;;;;;7.31;72.87;96393.75;5004396;28;19944;-61
2023/12/22 12:30:38;;;;;;;;;;;;;;;7.36;73.28;96380.06;5013001;28;19936;-62
2023/12/22 12:33:28;;;;;;;;;;;;;;;7.44;73.19;96368.38;5010453;28;19925;-62
2023/12/22 12:36:17;;;;;;;;;;;;;;;7.49;72.83;96357.38;5012937;28;19925;-62
2023/12/22 12:39:07;;;;;;;;;;;;;;;7.55;72.06;96366.09;5011311;28;19961;-63
2023/12/22 12:41:56;;;;;;;;;;;;;;;7.54;72.32;96354.50;5011838;28;19956;-62
2023/12/22 12:44:44;;;;;;;;;;;;;;;7.73;72.72;96362.16;5010245;28;19932;-62
2023/12/22 12:47:32;;;;;;;;;;;;;;;7.71;72.02;96356.25;5008084;28;20422;-64
2023/12/22 12:50:23;;;;;;;;;;;;;;;7.75;71.85;96340.19;5007604;28;20016;-63
2023/12/22 12:53:13;;;;;;;;;;;;;;;7.65;71.87;96344.06;5012321;28;19925;-63
2023/12/22 12:56:01;;;;;;;;;;;;;;;7.66;72.01;96331.34;5011378;28;20296;-62
2023/12/22 12:58:49;;;;;;;;;;;;;;;7.66;72.14;96328.66;5011039;28;20403;-63
2023/12/22 13:01:40;;;;;;;;;;;;;;;7.73;71.76;96323.50;5013090;28;20548;-63
2023/12/22 13:04:37;;;;;;;;;;;;;;;7.83;71.77;96323.91;5010635;28;19937;-60
2023/12/22 13:07:26;;;;;;;;;;;;;;;7.77;70.63;96314.38;5011284;28;20731;-62
2023/12/22 13:10:21;;;;;;;;;;;;;;;7.81;71.04;96312.59;5011539;28;19929;-61
2023/12/22 13:13:09;;;;;;;;;;;;;;;7.83;71.31;96318.50;5003476;28;19933;-60
2023/12/22 13:15:57;;;;;;;;;;;;;;;7.88;70.63;96326.41;5008232;28;19936;-60
2023/12/22 13:18:45;;;;;;;;;;;;;;;7.90;70.89;96322.56;5002776;28;19936;-61
2023/12/22 13:21:33;;;;;;;;;;;;;;;7.98;70.61;96318.97;5013582;28;20483;-60
2023/12/22 13:24:23;;;;;;;;;;;;;;;7.97;70.37;96303.88;5007894;28;20317;-61
2023/12/22 13:27:11;;;;;;;;;;;;;;;8.04;70.44;96307.63;5011217;28;19937;-61
2023/12/22 13:29:59;;;;;;;;;;;;;;;8.02;70.47;96306.38;5003448;28;20502;-61
2023/12/22 13:32:47;;;;;;;;;;;;;;;7.98;70.75;96313.56;5004927;28;19929;-61
2023/12/22 13:35:36;;;;;;;;;;;;;;;7.92;71.10;96301.38;5001333;28;19930;-61
2023/12/22 13:38:28;;;;;;;;;;;;;;;8.01;70.88;96296.69;4998253;28;19926;-61
2023/12/22 13:41:18;;;;;;;;;;;;;;;8.04;71.35;96287.88;5004621;28;19925;-61
2023/12/22 13:44:06;;;;;;;;;;;;;;;8.03;70.90;96289.81;5005198;28;20000;-60
2023/12/22 13:46:54;;;;;;;;;;;;;;;8.03;70.93;96300.63;5007562;28;19929;-60
2023/12/22 13:49:42;;;;;;;;;;;;;;;8.04;71.06;96306.81;5008930;28;19930;-60
2023/12/22 13:52:32;;;;;;;;;;;;;;;7.98;70.87;96313.56;4994987;28;19930;-61
2023/12/22 13:55:22;;;;;;;;;;;;;;;7.85;70.96;96316.22;5007871;28;20019;-61
2023/12/22 13:58:12;;;;;;;;;;;;;;;7.89;71.03;96294.75;5010937;28;19965;-63
2023/12/22 14:01:00;;;;;;;;;;;;;;;7.97;71.27;96303.88;5000898;28;19933;-62
2023/12/22 14:03:48;;;;;;;;;;;;;;;8.10;71.28;96327.16;5006804;28;19975;-61
2023/12/22 14:06:37;;;;;;;;;;;;;;;8.16;71.39;96306.88;5009082;28;19949;-61
2023/12/22 14:09:25;;;;;;;;;;;;;;;8.28;71.33;96315.00;5006368;28;19933;-60
2023/12/22 14:12:13;;;;;;;;;;;;;;;8.32;71.37;96344.91;5005036;28;20415;-60
2023/12/22 14:15:09;;;;;;;;;;;;;;;8.31;71.49;96303.53;5006386;28;19930;-62
2023/12/22 14:17:57;;;;;;;;;;;;;;;8.36;71.89;96308.75;5009134;28;19968;-62
2023/12/22 14:20:47;;;;;;;;;;;;;;;8.35;72.08;96325.28;5010888;28;20027;-62
2023/12/22 14:23:35;;;;;;;;;;;;;;;8.31;73.01;96311.66;5007433;28;20651;-62
2023/12/22 14:26:23;;;;;;;;;;;;;;;8.37;73.00;96321.16;5007928;28;20097;-62
2023/12/22 14:29:10;;;;;;;;;;;;;;;8.21;73.68;96328.31;5009954;28;20007;-62
2023/12/22 14:32:00;;;;;;;;;;;;;;;8.16;73.92;96319.63;5000879;28;19933;-62
2023/12/22 14:34:48;;;;;;;;;;;;;;;8.13;74.19;96323.75;5006007;28;19926;-63
2023/12/22 14:37:36;;;;;;;;;;;;;;;8.23;74.29;96320.63;5004606;28;20076;-61
2023/12/22 14:40:24;;;;;;;;;;;;;;;8.33;73.87;96325.63;5006033;28;19925;-61
2023/12/22 14:43:13;;;;;;;;;;;;;;;8.39;73.78;96329.72;5009088;28;19926;-61
2023/12/22 14:46:01;;;;;;;;;;;;;;;8.52;73.33;96337.84;5008845;28;20411;-61
2023/12/22 14:48:50;;;;;;;;;;;;;;;8.65;72.51;96318.59;5004766;28;20443;-61
2023/12/22 14:51:38;;;;;;;;;;;;;;;8.78;72.15;96332.91;4999546;28;20443;-60
2023/12/22 14:54:26;;;;;;;;;;;;;;;8.75;72.01;96328.19;5006085;28;19925;-61